createdAt,value
2018-12-13T00:01:46.603Z,21.65
2018-12-13T00:04:14.093Z,25.20
2018-12-13T00:06:41.610Z,24.27
2018-12-13T00:09:09.119Z,19.67
2018-12-13T00:11:36.718Z,21.30
2018-12-13T00:14:05.994Z,20.32
2018-12-13T00:16:33.482Z,22.10
2018-12-13T00:19:00.993Z,22.27
2018-12-13T00:21:28.502Z,25.48
2018-12-13T00:23:57.464Z,20.02
2018-12-13T00:26:25.847Z,19.60
2018-12-13T00:28:53.357Z,21.73
2018-12-13T00:31:20.850Z,16.07
2018-12-13T00:33:48.562Z,23.35
2018-12-13T00:36:16.070Z,18.65
2018-12-13T00:38:43.585Z,20.02
2018-12-13T00:41:11.107Z,19.60
2018-12-13T00:43:38.612Z,20.10
2018-12-13T00:46:06.087Z,19.80
2018-12-13T00:48:33.595Z,18.92
2018-12-13T00:51:01.077Z,18.30
2018-12-13T00:53:28.596Z,16.23
2018-12-13T00:55:56.069Z,19.92
2018-12-13T00:58:23.574Z,24.55
2018-12-13T01:00:51.073Z,18.55
2018-12-13T01:03:18.590Z,21.55
2018-12-13T01:05:46.088Z,16.32
2018-12-13T01:08:13.599Z,24.05
2018-12-13T01:10:41.083Z,19.20
2018-12-13T01:13:08.591Z,18.17
2018-12-13T01:15:36.141Z,19.35
2018-12-13T01:18:03.649Z,19.25
2018-12-13T01:20:31.222Z,17.98
2018-12-13T01:22:58.758Z,25.68
2018-12-13T01:25:26.299Z,17.60
2018-12-13T01:27:53.796Z,14.90
2018-12-13T01:30:21.507Z,19.25
2018-12-13T01:32:49.056Z,17.82
2018-12-13T01:35:16.544Z,16.93
2018-12-13T01:37:44.051Z,14.10
2018-12-13T01:40:11.562Z,16.25
2018-12-13T01:42:43.942Z,16.62
2018-12-13T01:45:11.854Z,18.73
2018-12-13T01:54:42.533Z,19.45
2018-12-13T01:57:10.784Z,19.32
2018-12-13T01:59:39.484Z,21.75
2018-12-13T02:02:07.831Z,19.90
2018-12-13T02:04:35.452Z,19.62
2018-12-13T02:07:03.561Z,24.40
2018-12-13T02:24:10.017Z,23.07
2018-12-13T02:26:38.073Z,25.80
2018-12-13T02:29:05.662Z,22.55
2018-12-13T02:31:33.797Z,22.40
2018-12-13T02:39:32.975Z,26.70
2018-12-13T02:42:00.579Z,26.05
2018-12-13T02:44:29.068Z,26.62
2018-12-13T02:54:50.567Z,27.98
2018-12-13T02:57:18.126Z,32.38
2018-12-13T02:59:45.950Z,27.25
2018-12-13T03:02:20.079Z,23.67
2018-12-13T03:22:10.656Z,39.90
2018-12-13T03:24:41.348Z,30.40
2018-12-13T03:27:08.944Z,30.30
2018-12-13T03:29:39.383Z,31.37
2018-12-13T03:32:08.037Z,28.35
2018-12-13T03:34:37.017Z,26.62
2018-12-13T03:37:08.023Z,35.23
2018-12-13T03:39:36.875Z,34.03
2018-12-13T03:42:09.516Z,29.80
2018-12-13T03:44:42.247Z,32.33
2018-12-13T03:47:09.865Z,33.40
2018-12-13T03:49:37.465Z,31.93
2018-12-13T03:52:08.815Z,32.38
2018-12-13T03:54:36.463Z,32.85
2018-12-13T03:57:04.326Z,27.58
2018-12-13T03:59:31.928Z,29.92
2018-12-13T04:04:49.981Z,27.05
2018-12-13T04:07:18.262Z,31.55
2018-12-13T04:09:45.840Z,31.97
2018-12-13T04:12:14.628Z,26.77
2018-12-13T04:15:01.643Z,29.30
2018-12-13T04:17:37.164Z,32.25
2018-12-13T04:20:05.210Z,33.78
2018-12-13T04:22:33.703Z,25.95
2018-12-13T04:27:52.744Z,27.55
2018-12-13T04:30:23.064Z,28.10
2018-12-13T04:32:52.569Z,31.30
2018-12-13T04:35:21.135Z,32.17
2018-12-13T04:37:49.278Z,27.67
2018-12-13T04:40:17.298Z,25.30
2018-12-13T04:45:37.136Z,28.23
2018-12-13T04:50:58.941Z,35.75
2018-12-13T04:53:27.248Z,23.42
2018-12-13T04:55:55.398Z,23.47
2018-12-13T04:58:25.326Z,19.95
2018-12-13T05:00:55.184Z,20.52
2018-12-13T05:03:25.385Z,22.22
2018-12-13T05:17:26.927Z,18.07
2018-12-13T05:19:55.966Z,16.27
2018-12-13T05:22:24.881Z,22.10
2018-12-13T05:24:52.749Z,16.48
2018-12-13T05:30:16.279Z,21.77
2018-12-13T05:38:25.231Z,16.57
2018-12-13T05:40:56.823Z,17.70
2018-12-13T05:43:25.864Z,13.10
2018-12-13T05:45:54.030Z,15.70
2018-12-13T05:56:53.285Z,17.42
2018-12-13T05:59:21.847Z,17.60
2018-12-13T06:01:49.462Z,16.20
2018-12-13T06:19:40.838Z,18.85
2018-12-13T06:22:09.089Z,15.58
2018-12-13T06:24:36.671Z,14.80
2018-12-13T06:27:05.453Z,14.05
2018-12-13T06:36:53.915Z,16.25
2018-12-13T06:39:21.491Z,13.18
2018-12-13T06:41:56.588Z,20.90
2018-12-13T06:44:24.225Z,18.92
2018-12-13T07:08:41.241Z,26.65
2018-12-13T07:11:08.926Z,25.82
2018-12-13T07:13:38.228Z,24.30
2018-12-13T07:16:05.817Z,27.95
2018-12-13T07:18:33.376Z,19.82
2018-12-13T07:23:34.878Z,23.38
2018-12-13T07:26:02.525Z,25.60
2018-12-13T07:28:30.171Z,25.30
2018-12-13T07:43:37.753Z,35.35
2018-12-13T07:51:46.546Z,22.95
2018-12-13T07:54:14.156Z,26.25
2018-12-13T07:56:46.462Z,25.97
2018-12-13T07:59:14.142Z,25.95
2018-12-13T08:01:44.909Z,37.85
2018-12-13T08:04:12.473Z,26.50
2018-12-13T08:06:39.996Z,24.20
2018-12-13T08:09:07.658Z,28.62
2018-12-13T08:11:35.234Z,27.65
2018-12-13T08:14:02.875Z,36.30
2018-12-13T08:16:30.481Z,26.93
2018-12-13T08:32:50.408Z,23.87
2018-12-13T08:35:20.884Z,24.37
2018-12-13T08:37:49.136Z,25.48
2018-12-13T08:40:18.878Z,25.52
2018-12-13T08:42:56.935Z,19.80
2018-12-13T08:52:16.412Z,23.75
2018-12-13T08:57:35.379Z,26.20
2018-12-13T09:00:03.951Z,22.37
2018-12-13T09:16:31.413Z,17.85
2018-12-13T09:18:56.350Z,19.98
2018-12-13T09:21:27.465Z,20.52
2018-12-13T09:23:57.363Z,19.57
2018-12-13T09:26:26.258Z,18.87
2018-12-13T09:29:34.935Z,20.82
2018-12-13T09:32:05.130Z,27.95
2018-12-13T09:34:34.330Z,19.73
2018-12-13T09:37:01.979Z,24.90
2018-12-13T09:39:30.113Z,17.17
2018-12-13T09:41:58.892Z,18.05
2018-12-13T09:44:26.461Z,17.75
2018-12-13T09:46:54.924Z,17.70
2018-12-13T09:49:22.508Z,18.90
2018-12-13T09:51:50.241Z,19.15
2018-12-13T09:54:17.815Z,20.57
2018-12-13T09:56:46.051Z,19.20
2018-12-13T09:59:17.455Z,24.43
2018-12-13T10:01:45.037Z,24.82
2018-12-13T10:04:15.429Z,25.00
2018-12-13T10:06:42.992Z,19.90
2018-12-13T10:09:12.029Z,17.98
2018-12-13T10:11:39.709Z,12.07
2018-12-13T10:14:07.367Z,18.98
2018-12-13T10:16:34.952Z,21.77
2018-12-13T10:19:02.977Z,17.67
2018-12-13T10:21:30.928Z,24.02
2018-12-13T10:23:58.801Z,17.67
2018-12-13T10:26:26.635Z,15.28
2018-12-13T10:28:54.574Z,20.17
2018-12-13T10:31:22.130Z,15.08
2018-12-13T10:33:49.763Z,16.75
2018-12-13T10:36:17.930Z,21.25
2018-12-13T10:38:53.056Z,19.62
2018-12-13T10:41:20.512Z,19.15
2018-12-13T10:43:48.104Z,20.05
2018-12-13T10:46:15.637Z,19.00
2018-12-13T10:48:44.019Z,16.30
2018-12-13T10:51:15.296Z,17.23
2018-12-13T10:53:45.709Z,16.70
2018-12-13T10:56:13.821Z,14.90
2018-12-13T10:58:41.992Z,17.98
2018-12-13T11:01:27.165Z,20.52
2018-12-13T11:03:58.796Z,17.20
2018-12-13T11:06:26.727Z,17.73
2018-12-13T11:08:59.384Z,24.90
2018-12-13T11:11:24.495Z,18.32
2018-12-13T11:13:54.213Z,18.17
2018-12-13T11:16:22.103Z,17.92
2018-12-13T11:18:49.644Z,25.50
2018-12-13T11:21:17.631Z,14.93
2018-12-13T11:23:45.450Z,20.57
2018-12-13T11:26:13.308Z,17.12
2018-12-13T11:28:54.169Z,19.57
2018-12-13T11:31:32.645Z,17.10
2018-12-13T11:34:00.199Z,17.40
2018-12-13T11:36:28.154Z,18.25
2018-12-13T11:38:55.695Z,13.75
2018-12-13T11:41:23.243Z,20.90
2018-12-13T11:43:50.765Z,18.48
2018-12-13T11:46:18.343Z,18.17
2018-12-13T11:48:45.851Z,17.73
2018-12-13T11:51:13.406Z,17.12
2018-12-13T11:53:43.150Z,21.65
2018-12-13T11:56:13.035Z,20.00
2018-12-13T11:58:40.603Z,15.75
2018-12-13T12:01:08.157Z,20.97
2018-12-13T12:03:35.702Z,15.85
2018-12-13T12:06:03.355Z,16.93
2018-12-13T12:08:30.924Z,17.70
2018-12-13T12:10:58.526Z,16.27
2018-12-13T12:13:26.080Z,17.90
2018-12-13T12:15:53.610Z,20.17
2018-12-13T12:18:22.093Z,14.50
2018-12-13T12:20:52.115Z,17.65
2018-12-13T12:23:19.636Z,15.88
2018-12-13T12:25:48.988Z,16.45
2018-12-13T12:28:17.243Z,11.68
2018-12-13T12:30:47.357Z,17.20
2018-12-13T12:33:14.900Z,14.93
2018-12-13T12:35:42.520Z,17.10
2018-12-13T12:38:11.310Z,13.40
2018-12-13T12:40:39.600Z,17.35
2018-12-13T12:43:07.181Z,16.30
2018-12-13T12:45:39.661Z,14.33
2018-12-13T12:48:14.812Z,16.50
2018-12-13T12:50:42.367Z,15.18
2018-12-13T12:53:17.803Z,13.93
2018-12-13T12:55:45.368Z,16.48
2018-12-13T12:58:12.902Z,15.10
2018-12-13T13:00:42.265Z,14.65
2018-12-13T13:03:10.150Z,15.25
2018-12-13T13:05:41.017Z,17.30
2018-12-13T13:08:08.702Z,17.50
2018-12-13T13:10:39.364Z,14.28
2018-12-13T13:13:07.013Z,19.35
2018-12-13T13:15:34.620Z,15.20
2018-12-13T13:18:02.622Z,15.30
2018-12-13T13:20:31.825Z,15.28
2018-12-13T13:22:59.377Z,15.35
2018-12-13T13:28:18.528Z,17.10
2018-12-13T13:30:46.125Z,31.02
2018-12-13T13:33:15.613Z,15.95
2018-12-13T13:35:45.190Z,18.90
2018-12-13T13:38:15.473Z,25.85
2018-12-13T13:40:45.646Z,16.95
2018-12-13T13:43:13.994Z,15.53
2018-12-13T13:45:42.127Z,17.17
2018-12-13T13:48:12.303Z,14.53
2018-12-13T13:53:43.450Z,19.50
2018-12-13T13:56:11.767Z,19.10
2018-12-13T13:58:40.137Z,16.32
2018-12-13T14:01:19.020Z,20.90
2018-12-13T14:03:47.681Z,26.07
2018-12-13T14:06:17.694Z,23.27
2018-12-13T14:08:46.346Z,20.77
2018-12-13T14:11:14.998Z,17.90
2018-12-13T14:13:49.507Z,19.32
2018-12-13T14:16:17.126Z,15.68
2018-12-13T14:18:46.853Z,16.45
2018-12-13T14:21:15.703Z,14.07
2018-12-13T14:23:43.673Z,15.83
2018-12-13T14:26:14.870Z,15.20
2018-12-13T14:28:45.998Z,15.55
2018-12-13T14:31:15.027Z,21.15
2018-12-13T14:39:26.288Z,14.95
2018-12-13T14:41:53.876Z,18.50
2018-12-13T14:44:21.539Z,13.78
2018-12-13T14:46:52.508Z,12.85
2018-12-13T14:49:20.099Z,13.32
2018-12-13T14:51:48.959Z,13.13
2018-12-13T14:54:16.649Z,13.10
2018-12-13T14:56:47.824Z,14.60
2018-12-13T14:59:15.677Z,12.73
2018-12-13T15:04:36.660Z,17.15
2018-12-13T15:07:05.745Z,13.90
2018-12-13T15:09:36.127Z,15.35
2018-12-13T15:12:13.509Z,13.55
2018-12-13T15:14:44.972Z,15.80
2018-12-13T15:17:14.994Z,12.00
2018-12-13T15:19:43.838Z,13.68
2018-12-13T15:22:13.098Z,13.22
2018-12-13T15:30:22.760Z,14.30
2018-12-13T15:32:50.514Z,12.55
2018-12-13T15:35:19.957Z,10.88
2018-12-13T15:40:39.885Z,16.25
2018-12-13T15:43:07.576Z,12.50
2018-12-13T15:45:35.343Z,14.65
2018-12-13T15:48:03.125Z,22.22
2018-12-13T15:50:30.758Z,26.07
2018-12-13T15:53:01.229Z,14.70
2018-12-13T15:55:28.990Z,17.95
2018-12-13T15:57:57.056Z,15.75
2018-12-13T16:58:26.330Z,17.95
2018-12-13T17:12:17.646Z,20.48
2018-12-13T17:14:45.223Z,20.48
2018-12-13T17:17:12.789Z,18.95
2018-12-13T17:19:41.085Z,19.35
2018-12-13T17:30:40.911Z,16.02
2018-12-13T17:33:11.558Z,17.07
2018-12-13T17:35:39.536Z,17.70
2018-12-13T17:38:07.888Z,17.42
2018-12-13T17:40:38.837Z,20.08
2018-12-13T17:43:10.393Z,25.35
2018-12-13T18:05:25.411Z,25.30
2018-12-13T18:10:44.434Z,27.90
2018-12-13T18:13:12.155Z,27.73
2018-12-13T18:15:46.429Z,25.48
2018-12-13T18:18:16.886Z,24.30
2018-12-13T18:20:49.103Z,22.40
2018-12-13T18:37:22.221Z,34.08
2018-12-13T18:39:49.827Z,30.75
2018-12-13T18:44:50.545Z,25.77
2018-12-13T18:58:52.139Z,25.50
2018-12-13T19:01:34.847Z,25.82
2018-12-13T19:16:54.883Z,28.00
2018-12-13T19:19:24.199Z,25.77
2018-12-13T19:38:44.896Z,29.70
2018-12-13T19:47:35.007Z,33.20
2018-12-13T20:03:37.359Z,30.05
2018-12-13T20:08:55.232Z,32.42
2018-12-13T20:11:33.081Z,28.85
2018-12-13T20:14:07.303Z,29.72
2018-12-13T20:16:37.440Z,27.50
2018-12-13T20:34:36.282Z,31.05
2018-12-13T20:37:04.310Z,34.98
2018-12-13T20:39:33.585Z,34.92
2018-12-13T20:42:01.264Z,32.17
2018-12-13T20:53:00.477Z,31.23
2018-12-13T20:55:28.957Z,34.35
2018-12-13T20:58:07.988Z,32.63
2018-12-13T21:00:36.772Z,28.90
2018-12-13T21:03:08.369Z,30.25
2018-12-13T21:05:36.046Z,28.12
2018-12-13T21:08:08.588Z,32.05
2018-12-13T21:10:38.946Z,29.67
2018-12-13T21:13:06.683Z,35.50
2018-12-13T21:15:34.817Z,31.35
2018-12-13T21:18:05.568Z,30.70
2018-12-13T21:20:33.504Z,30.43
2018-12-13T21:26:02.584Z,23.20
2018-12-13T21:28:30.382Z,28.60
2018-12-13T21:30:58.903Z,27.50
2018-12-13T21:33:26.459Z,30.65
2018-12-13T21:35:54.669Z,25.30
2018-12-13T21:38:22.473Z,29.40
2018-12-13T21:40:50.106Z,27.32
2018-12-13T21:43:46.834Z,28.73
2018-12-13T22:11:31.124Z,19.98
2018-12-13T22:14:00.527Z,18.82
2018-12-13T23:14:10.816Z,20.52
2018-12-13T23:16:38.515Z,22.42
2018-12-13T23:19:15.908Z,22.62
2018-12-13T23:21:46.448Z,24.47
2018-12-13T23:24:14.078Z,25.12
2018-12-13T23:29:32.474Z,25.32
2018-12-13T23:32:01.693Z,20.12
2018-12-13T23:34:37.661Z,22.27
2018-12-13T23:41:18.355Z,18.20
2018-12-13T23:58:23.626Z,25.45
